createdAt,value
2023-03-19T00:04:33.739Z,98350.22
2023-03-19T00:09:37.897Z,98363.34
2023-03-19T00:14:42.261Z,98353.53
2023-03-19T00:19:47.733Z,98352.84
2023-03-19T00:24:52.404Z,98366.31
2023-03-19T00:29:56.808Z,98365.47
2023-03-19T00:35:02.539Z,98369.03
2023-03-19T00:40:07.888Z,98369.97
2023-03-19T00:45:12.876Z,98355.69
2023-03-19T00:50:18.487Z,98357.56
2023-03-19T00:55:22.890Z,98349.41
2023-03-19T01:00:27.186Z,98352.91
2023-03-19T01:05:32.822Z,98351.78
2023-03-19T01:10:37.127Z,98361.88
2023-03-19T01:15:44.043Z,98362.22
2023-03-19T01:20:49.916Z,98361.25
2023-03-19T01:25:54.439Z,98367.66
2023-03-19T01:31:01.052Z,98361.16
2023-03-19T01:36:25.043Z,98368.56
2023-03-19T01:41:37.950Z,98367.75
2023-03-19T01:47:04.023Z,98369.66
2023-03-19T01:52:35.941Z,98362.25
2023-03-19T01:57:52.184Z,98355.03
2023-03-19T02:03:09.709Z,98354.47
2023-03-19T02:08:39.141Z,98358.38
2023-03-19T02:13:43.268Z,98349.34
2023-03-19T02:18:48.453Z,98351.72
2023-03-19T02:24:01.539Z,98340.25
2023-03-19T02:29:21.722Z,98352.91
2023-03-19T02:34:38.002Z,98352.91
2023-03-19T02:39:47.000Z,98351.31
2023-03-19T02:44:52.547Z,98352.38
2023-03-19T02:49:56.825Z,98358.34
2023-03-19T02:55:00.822Z,98356.25
2023-03-19T03:00:09.246Z,98352.97
2023-03-19T03:05:13.695Z,98351.34
2023-03-19T03:10:18.123Z,98360.81
2023-03-19T03:15:23.986Z,98364.81
2023-03-19T03:20:28.280Z,98365.03
2023-03-19T03:25:32.290Z,98369.50
2023-03-19T03:30:38.326Z,98373.72
2023-03-19T03:35:43.014Z,98376.16
2023-03-19T03:40:46.977Z,98374.28
2023-03-19T03:45:53.495Z,98382.94
2023-03-19T03:50:58.422Z,98377.44
2023-03-19T03:56:05.256Z,98380.84
2023-03-19T04:01:12.394Z,98374.50
2023-03-19T04:06:17.123Z,98375.34
2023-03-19T04:11:21.827Z,98379.41
2023-03-19T04:16:28.742Z,98370.06
2023-03-19T04:21:33.122Z,98381.06
2023-03-19T04:26:37.799Z,98373.59
2023-03-19T04:31:43.152Z,98372.06
2023-03-19T04:36:47.382Z,98374.75
2023-03-19T04:41:51.607Z,98367.97
2023-03-19T04:47:13.887Z,98357.44
2023-03-19T04:52:31.483Z,98370.06
2023-03-19T04:57:35.777Z,98363.19
2023-03-19T05:02:43.062Z,98362.09
2023-03-19T05:07:47.656Z,98352.75
2023-03-19T05:12:51.705Z,98345.75
2023-03-19T05:17:57.997Z,98355.09
2023-03-19T05:23:13.667Z,98352.88
2023-03-19T05:28:36.778Z,98357.66
2023-03-19T05:33:43.208Z,98365.59
2023-03-19T05:38:48.232Z,98360.41
2023-03-19T05:44:00.965Z,98372.31
2023-03-19T05:49:26.896Z,98372.28
2023-03-19T05:54:31.152Z,98368.50
2023-03-19T05:59:44.676Z,98381.78
2023-03-19T06:05:22.861Z,98375.84
2023-03-19T06:10:30.075Z,98387.81
2023-03-19T06:15:38.033Z,98386.56
2023-03-19T06:21:01.059Z,98385.75
2023-03-19T06:26:06.001Z,98390.91
2023-03-19T06:31:17.977Z,98397.41
2023-03-19T06:36:49.738Z,98402.75
2023-03-19T06:41:55.157Z,98407.22
2023-03-19T06:47:02.101Z,98411.69
2023-03-19T06:52:08.694Z,98415.59
2023-03-19T06:57:12.844Z,98405.38
2023-03-19T07:02:17.205Z,98399.81
2023-03-19T07:07:22.652Z,98402.47
2023-03-19T07:12:27.946Z,98406.31
2023-03-19T07:17:32.036Z,98409.06
2023-03-19T07:22:37.305Z,98412.09
2023-03-19T07:27:41.213Z,98427.41
2023-03-19T07:32:45.112Z,98425.59
2023-03-19T07:37:50.796Z,98417.78
2023-03-19T07:42:55.220Z,98419.25
2023-03-19T07:48:03.327Z,98411.66
2023-03-19T07:53:08.837Z,98412.28
2023-03-19T07:58:13.191Z,98418.66
2023-03-19T08:03:17.364Z,98413.81
2023-03-19T08:08:23.199Z,98409.13
2023-03-19T08:13:27.099Z,98404.94
2023-03-19T08:18:31.341Z,98412.59
2023-03-19T08:23:37.020Z,98410.47
2023-03-19T08:28:41.296Z,98412.25
2023-03-19T08:33:45.366Z,98415.63
2023-03-19T08:38:54.702Z,98411.16
2023-03-19T08:43:58.897Z,98419.84
2023-03-19T08:49:03.022Z,98418.59
2023-03-19T08:54:09.537Z,98422.69
2023-03-19T08:59:13.708Z,98418.72
2023-03-19T09:04:17.832Z,98426.97
2023-03-19T09:09:24.988Z,98427.09
2023-03-19T09:14:29.429Z,98424.34
2023-03-19T09:19:34.426Z,98425.38
2023-03-19T09:24:40.764Z,98423.97
2023-03-19T09:29:44.966Z,98432.78
2023-03-19T09:34:49.125Z,98419.78
2023-03-19T09:39:54.461Z,98418.25
2023-03-19T09:44:59.159Z,98422.72
2023-03-19T09:50:06.085Z,98426.81
2023-03-19T09:55:20.848Z,98426.16
2023-03-19T10:00:28.160Z,98419.81
2023-03-19T10:05:43.566Z,98417.72
2023-03-19T10:11:01.014Z,98415.69
2023-03-19T10:16:06.063Z,98406.38
2023-03-19T10:21:13.576Z,98406.47
2023-03-19T10:26:20.323Z,98406.03
2023-03-19T10:31:28.616Z,98410.16
2023-03-19T10:36:36.028Z,98413.78
2023-03-19T10:41:48.565Z,98402.91
2023-03-19T10:46:52.610Z,98402.53
2023-03-19T10:51:58.368Z,98393.38
2023-03-19T10:57:03.857Z,98391.38
2023-03-19T11:02:17.723Z,98391.19
2023-03-19T11:07:22.568Z,98379.28
2023-03-19T11:12:33.932Z,98383.31
2023-03-19T11:17:39.693Z,98365.50
2023-03-19T11:22:43.897Z,98363.47
2023-03-19T11:27:59.664Z,98360.44
2023-03-19T11:33:17.622Z,98359.63
2023-03-19T11:38:26.398Z,98343.28
2023-03-19T11:43:50.606Z,98342.06
2023-03-19T11:49:27.802Z,98340.69
2023-03-19T11:54:37.244Z,98335.94
2023-03-19T11:59:54.976Z,98338.28
2023-03-19T12:05:18.792Z,98331.22
2023-03-19T12:10:31.398Z,98332.22
2023-03-19T12:15:44.786Z,98325.47
2023-03-19T12:20:58.739Z,98328.47
2023-03-19T12:26:08.851Z,98328.50
2023-03-19T12:31:50.132Z,98329.91
2023-03-19T12:36:58.718Z,98324.22
2023-03-19T12:42:05.714Z,98320.84
2023-03-19T12:47:15.970Z,98321.16
2023-03-19T12:52:23.723Z,98304.38
2023-03-19T12:57:33.256Z,98314.56
2023-03-19T13:02:42.340Z,98305.16
2023-03-19T13:07:51.348Z,98299.06
2023-03-19T13:12:56.298Z,98295.97
2023-03-19T13:18:12.652Z,98285.63
2023-03-19T13:23:24.508Z,98274.88
2023-03-19T13:28:30.910Z,98282.59
2023-03-19T13:33:38.619Z,98281.19
2023-03-19T13:38:46.169Z,98284.88
2023-03-19T13:43:54.897Z,98290.47
2023-03-19T13:49:25.234Z,98280.91
2023-03-19T13:54:40.685Z,98280.84
2023-03-19T13:59:46.846Z,98278.22
2023-03-19T14:04:54.924Z,98266.25
2023-03-19T14:10:08.620Z,98264.97
2023-03-19T14:15:18.220Z,98259.25
2023-03-19T14:20:33.619Z,98260.63
2023-03-19T14:26:16.384Z,98251.28
2023-03-19T14:31:24.877Z,98241.72
2023-03-19T14:36:31.926Z,98242.38
2023-03-19T14:41:41.498Z,98241.78
2023-03-19T14:46:57.337Z,98249.19
2023-03-19T14:52:07.655Z,98256.09
2023-03-19T14:57:17.934Z,98242.72
2023-03-19T15:02:31.785Z,98247.00
2023-03-19T15:07:39.916Z,98241.22
2023-03-19T15:13:06.260Z,98242.91
2023-03-19T15:18:11.830Z,98242.94
2023-03-19T15:23:27.381Z,98233.03
2023-03-19T15:28:34.522Z,98238.91
2023-03-19T15:33:44.882Z,98240.75
2023-03-19T15:38:55.276Z,98235.69
2023-03-19T15:44:00.161Z,98240.13
2023-03-19T15:49:07.426Z,98251.25
2023-03-19T15:54:13.189Z,98246.38
2023-03-19T15:59:18.181Z,98251.00
2023-03-19T16:04:27.056Z,98248.56
2023-03-19T16:09:35.423Z,98249.94
2023-03-19T16:14:43.110Z,98254.31
2023-03-19T16:19:53.485Z,98241.41
2023-03-19T16:25:01.974Z,98230.34
2023-03-19T16:30:17.228Z,98235.41
2023-03-19T16:35:21.477Z,98236.78
2023-03-19T16:40:48.466Z,98243.13
2023-03-19T16:45:53.796Z,98226.19
2023-03-19T16:50:58.041Z,98217.50
2023-03-19T16:56:03.984Z,98221.59
2023-03-19T17:01:16.140Z,98228.44
2023-03-19T17:06:21.404Z,98233.59
2023-03-19T17:11:29.825Z,98239.03
2023-03-19T17:16:34.013Z,98230.63
2023-03-19T17:21:37.939Z,98228.91
2023-03-19T17:26:43.358Z,98230.50
2023-03-19T17:31:48.012Z,98229.25
2023-03-19T17:36:56.114Z,98230.44
2023-03-19T17:42:01.383Z,98229.03
2023-03-19T17:47:05.507Z,98227.75
2023-03-19T17:52:14.908Z,98246.47
2023-03-19T17:57:20.325Z,98239.31
2023-03-19T18:02:33.319Z,98240.09
2023-03-19T18:07:37.228Z,98237.19
2023-03-19T18:12:42.699Z,98240.28
2023-03-19T18:17:49.801Z,98236.25
2023-03-19T18:22:54.103Z,98241.44
2023-03-19T18:27:59.974Z,98244.00
2023-03-19T18:33:06.168Z,98232.31
2023-03-19T18:38:15.517Z,98237.50
2023-03-19T18:43:21.166Z,98240.69
2023-03-19T18:48:27.427Z,98241.81
2023-03-19T18:53:31.768Z,98251.72
2023-03-19T18:58:38.906Z,98243.56
2023-03-19T19:03:43.086Z,98246.47
2023-03-19T19:08:47.581Z,98243.19
2023-03-19T19:13:56.427Z,98240.06
2023-03-19T19:19:00.576Z,98245.72
2023-03-19T19:24:05.526Z,98237.59
2023-03-19T19:29:14.279Z,98252.50
2023-03-19T19:34:18.414Z,98243.72
2023-03-19T19:39:22.969Z,98249.25
2023-03-19T19:44:28.574Z,98257.31
2023-03-19T19:49:32.983Z,98262.09
2023-03-19T19:54:36.892Z,98260.41
2023-03-19T19:59:42.146Z,98244.00
2023-03-19T20:04:46.758Z,98247.41
2023-03-19T20:09:50.715Z,98255.63
2023-03-19T20:14:57.054Z,98249.13
2023-03-19T20:20:00.960Z,98255.09
2023-03-19T20:25:07.336Z,98251.44
2023-03-19T20:30:23.544Z,98253.75
2023-03-19T20:35:31.059Z,98253.59
2023-03-19T20:40:38.064Z,98255.16
2023-03-19T20:45:43.670Z,98262.91
2023-03-19T20:50:48.265Z,98258.72
2023-03-19T20:55:52.422Z,98246.03
2023-03-19T21:00:59.029Z,98244.56
2023-03-19T21:06:04.916Z,98245.22
2023-03-19T21:11:14.290Z,98248.44
2023-03-19T21:16:21.133Z,98242.88
2023-03-19T21:21:29.709Z,98246.94
2023-03-19T21:26:37.382Z,98237.16
2023-03-19T21:31:43.207Z,98234.34
2023-03-19T21:36:47.624Z,98229.84
2023-03-19T21:41:52.041Z,98226.19
2023-03-19T21:46:57.443Z,98223.75
2023-03-19T21:52:01.600Z,98231.97
2023-03-19T21:57:05.768Z,98222.25
2023-03-19T22:02:36.796Z,98226.41
2023-03-19T22:07:41.281Z,98230.25
2023-03-19T22:12:45.821Z,98225.47
2023-03-19T22:17:51.561Z,98234.56
2023-03-19T22:22:56.477Z,98234.06
2023-03-19T22:28:01.223Z,98220.50
2023-03-19T22:33:13.561Z,98215.00
2023-03-19T22:38:18.310Z,98218.47
2023-03-19T22:43:28.336Z,98211.03
2023-03-19T22:48:33.667Z,98199.94
2023-03-19T22:53:38.611Z,98214.88
2023-03-19T22:58:42.672Z,98216.78
2023-03-19T23:03:48.518Z,98210.31
2023-03-19T23:08:52.432Z,98212.59
2023-03-19T23:13:56.921Z,98206.59
2023-03-19T23:19:02.840Z,98208.63
2023-03-19T23:24:09.970Z,98216.94
2023-03-19T23:29:19.462Z,98207.19
2023-03-19T23:34:25.958Z,98205.13
2023-03-19T23:39:30.387Z,98203.47
2023-03-19T23:44:34.322Z,98193.81
2023-03-19T23:49:39.983Z,98198.41
2023-03-19T23:54:44.102Z,98192.56
2023-03-19T23:59:50.366Z,98198.53
